• Join FlightAware (Why Join?)
  • Login
  • US Flag 
09:34PM EST


 

Airport Tracker/Info


-or-


 

Live Flight TrackerFlight Track Log ✈ N498QS ✈ 03-Dec-2012 ✈ KDFW - KLAS

Flight Track Log - Related Links

Times and Time Zones

All times are in EST time to prevent confusion due to time zone crossing. See the N498QS flight status page for this flight to view local times or setup timezone preferences in your user account.

Time Position Orientation Groundspeed Altitude Reporting Facility
EST Latitude Longitude Course Direction KTS MPH feet Rate Location/Type
11:46AM 32.8917 -97.0511 181° South 140 161 1,500  Level FAA TRACON SMA TRACON (SMA)
11:46AM 32.8769 -97.0514 181° South 161 185 2,200 3,720 Climbing FAA TRACON SMA TRACON (SMA)
11:46AM 32.8569 -97.0511 179° South 185 213 4,000 3,900 Climbing FAA TRACON SMA TRACON (SMA)
11:47AM 32.8408 -97.0517 182° South 186 214 4,800 2,100 Climbing FAA TRACON SMA TRACON (SMA)
11:47AM 32.8172 -97.0536 184° South 215 247 5,400 2,400 Climbing FAA TRACON SMA TRACON (SMA)
11:47AM 32.7994 -97.0664 211° Southwest 244 281 6,400 3,000 Climbing FAA TRACON SMA TRACON (SMA)
11:48AM 32.7911 -97.0892 246° West 255 293 7,400 2,880 Climbing FAA TRACON SMA TRACON (SMA)
11:48AM 32.7939 -97.1161 277° West 268 308 8,300 3,480 Climbing FAA TRACON SMA TRACON (SMA)
11:48AM 32.8006 -97.1508 283° West 279 321 9,700 3,420 Climbing FAA TRACON SMA TRACON (SMA)
11:49AM 32.8039 -97.1792 278° West 281 323 10,600 1,740 Climbing FAA TRACON SMA TRACON (SMA)
11:49AM 32.8072 -97.2100 277° West 297 342 10,900 1,860 Climbing FAA TRACON SMA TRACON (SMA)
11:49AM 32.8119 -97.2514 278° West 325 374 11,900 2,820 Climbing FAA TRACON SMA TRACON (SMA)
11:50AM 32.8161 -97.2858 278° West 338 389 12,800 2,700 Climbing FAA TRACON SMA TRACON (SMA)
11:50AM 32.8200 -97.3208 278° West 344 396 13,700 2,580 Climbing FAA TRACON SMA TRACON (SMA)
11:50AM 32.8242 -97.3564 278° West 351 404 14,600 3,120 Climbing FAA TRACON SMA TRACON (SMA)
11:51AM 32.8294 -97.4017 278° West 357 411 15,900 3,420 Climbing FAA TRACON SMA TRACON (SMA)
11:51AM 32.8328 -97.4375 276° West 357 411 16,900 2,880 Climbing FAA TRACON SMA TRACON (SMA)
11:51AM 32.8375 -97.4736 279° West 358 412 17,800 2,700 Climbing FAA TRACON SMA TRACON (SMA)
11:52AM 32.8422 -97.5189 277° West 358 412 18,700 2,580 Climbing FAA TRACON SMA TRACON (SMA)
11:52AM 32.8469 -97.5561 279° West 365 420 19,500 2,460 Climbing FAA TRACON SMA TRACON (SMA)
11:52AM 32.8508 -97.5936 277° West 368 423 20,300 2,520 Climbing FAA TRACON SMA TRACON (SMA)
11:53AM 32.8564 -97.6414 278° West 375 432 21,200 2,520 Climbing FAA TRACON SMA TRACON (SMA)
11:53AM 32.8622 -97.6792 280° West 378 435 22,000 2,220 Climbing FAA TRACON SMA TRACON (SMA)
11:53AM 32.8711 -97.7169 286° West 383 441 22,700 2,340 Climbing FAA TRACON SMA TRACON (SMA)
11:54AM 32.8825 -97.7647 286° West 389 448 23,600 2,400 Climbing FAA TRACON SMA TRACON (SMA)
11:54AM 32.8922 -97.8031 287° West 391 450 24,300 1,920 Climbing FAA TRACON SMA TRACON (SMA)
11:54AM 32.9028 -97.8419 288° West 397 457 24,900 1,500 Climbing FAA TRACON SMA TRACON (SMA)
11:55AM 32.9139 -97.8917 285° West 401 461 25,300 1,020 Climbing FAA TRACON SMA TRACON (SMA)
11:55AM 32.9250 -97.9319 288° West 409 471 25,600 1,200 Climbing FAA TRACON SMA TRACON (SMA)
11:55AM 32.9347 -97.9714 286° West 409 471 26,100 1,920 Climbing FAA TRACON SMA TRACON (SMA)
11:56AM 32.9481 -98.0222 287° West 411 473 26,900 2,100 Climbing FAA TRACON SMA TRACON (SMA)
11:56AM 32.9569 -98.0628 285° West 414 476 27,500 1,800 Climbing FAA TRACON SMA TRACON (SMA)
11:56AM 32.9667 -98.1039 286° West 417 480 28,100 2,100 Climbing FAA TRACON SMA TRACON (SMA)
11:57AM 32.9817 -98.1558 289° West 424 488 28,900 2,100 Climbing FAA TRACON SMA TRACON (SMA)
11:57AM 32.9914 -98.1967 286° West 421 484 29,500 1,500 Climbing FAA TRACON SMA TRACON (SMA)
11:57AM 32.9994 -98.2275 287° West 422 486 29,900 1,740 Climbing FAA TRACON SMA TRACON (SMA)
11:58AM 33.0119 -98.2953 282° West 418 481 31,000 2,040 Climbing Fort Worth Center
11:59AM 33.0442 -98.4294 286° West 418 481 33,000 1,500 Climbing Fort Worth Center
12:00PM 33.0744 -98.5564 286° West 418 481 34,000 840 Climbing Fort Worth Center
12:01PM 33.1086 -98.6906 287° West 423 487 34,700 900 Climbing Fort Worth Center
12:02PM 33.1386 -98.8225 285° West 423 487 35,800 1,260 Climbing Fort Worth Center
12:03PM 33.1683 -98.9519 285° West 418 481 37,300 1,500 Climbing Fort Worth Center
12:04PM 33.1981 -99.0792 286° West 418 481 38,800 1,200 Climbing Fort Worth Center
12:05PM 33.2294 -99.2139 286° West 418 481 39,800 600 Climbing Fort Worth Center
12:06PM 33.2608 -99.3486 286° West 418 481 40,000 60 Climbing Fort Worth Center
12:07PM 33.2922 -99.4811 286° West 418 481 40,000  Level Fort Worth Center
12:08PM 33.3211 -99.6136 285° West 418 481 40,000  Level Fort Worth Center
12:09PM 33.3522 -99.7461 286° West 418 481 40,000  Level Fort Worth Center
12:10PM 33.3831 -99.8764 286° West 418 481 40,000  Level Fort Worth Center
12:11PM 33.4117 -100.0089 285° West 418 481 40,000  Level Fort Worth Center
12:12PM 33.4403 -100.1417 285° West 418 481 40,000  Level Fort Worth Center
12:13PM 33.4706 -100.2772 285° West 418 481 40,000  Level Fort Worth Center
12:14PM 33.4986 -100.4150 284° West 423 487 40,000  Level Fort Worth Center
12:15PM 33.5308 -100.5483 286° West 418 481 40,000  Level Fort Worth Center
12:16PM 33.5647 -100.6914 286° West 418 481 40,000  Level Fort Worth Center
12:17PM 33.5928 -100.8147 285° West 418 481 40,000  Level Fort Worth Center
12:18PM 33.6222 -100.9606 284° West 418 481 40,000  Level Fort Worth Center
12:19PM 33.6481 -101.0789 285° West 418 481 40,000  Level Fort Worth Center
12:20PM 33.6769 -101.2272 283° West 418 481 40,000  Level Fort Worth Center
12:21PM 33.7044 -101.3483 285° West 418 481 40,000  Level Fort Worth Center
12:22PM 33.7333 -101.4944 283° West 418 481 40,000  Level Fort Worth Center
12:23PM 33.7606 -101.6106 286° West 412 474 40,000  Level Fort Worth Center
12:24PM 33.7933 -101.7572 285° West 412 474 40,000  Level Fort Worth Center
12:25PM 33.8197 -101.8936 283° West 418 481 40,000  Level Fort Worth Center
12:26PM 33.8425 -102.0147 283° West 418 481 40,000  Level Fort Worth Center
12:27PM 33.8706 -102.1586 283° West 413 475 40,000  Level Fort Worth Center
12:28PM 33.8953 -102.2753 284° West 403 464 40,000  Level Fort Worth Center
12:29PM 33.9231 -102.4169 283° West 403 464 40,000  Level Fort Worth Center
12:30PM 33.9397 -102.4950 284° West 404 465 40,000  Level Albuquerque Center
12:31PM 33.9708 -102.6519 283° West 403 464 40,000  Level Albuquerque Center
12:32PM 33.9972 -102.7811 284° West 402 463 40,000  Level Albuquerque Center
12:33PM 34.0244 -102.9092 284° West 399 459 40,000  Level Albuquerque Center
12:34PM 34.0489 -103.0400 283° West 400 460 40,000  Level Albuquerque Center
12:35PM 34.0750 -103.1700 284° West 401 461 40,000  Level Albuquerque Center
12:36PM 34.1008 -103.3014 283° West 402 463 40,000  Level Albuquerque Center
12:37PM 34.1297 -103.4592 283° West 402 463 40,000  Level Albuquerque Center
12:38PM 34.1542 -103.5894 283° West 401 461 40,000  Level Albuquerque Center
12:39PM 34.1800 -103.7269 283° West 399 459 40,000  Level Albuquerque Center
12:40PM 34.2053 -103.8578 283° West 398 458 40,000  Level Albuquerque Center
12:41PM 34.2300 -103.9908 283° West 399 459 40,000  Level Albuquerque Center
12:42PM 34.2550 -104.1233 283° West 400 460 40,000  Level Albuquerque Center
12:43PM 34.2797 -104.2581 283° West 403 464 40,000  Level Albuquerque Center
12:44PM 34.3094 -104.4139 283° West 403 464 40,000  Level Albuquerque Center
12:45PM 34.3336 -104.5486 282° West 405 466 40,000  Level Albuquerque Center
12:46PM 34.3583 -104.6850 282° West 407 468 40,000  Level Albuquerque Center
12:47PM 34.3836 -104.8208 283° West 408 470 40,000  Level Albuquerque Center
12:48PM 34.4078 -104.9553 282° West 406 467 40,000  Level Albuquerque Center
12:49PM 34.4319 -105.0908 282° West 407 468 40,000  Level Albuquerque Center
12:50PM 34.4572 -105.2292 283° West 413 475 40,000  Level Albuquerque Center
12:51PM 34.4808 -105.3683 282° West 416 479 40,000  Level Albuquerque Center
12:52PM 34.5108 -105.5336 282° West 423 487 40,000  Level Albuquerque Center
12:53PM 34.5356 -105.6739 282° West 422 486 40,000  Level Albuquerque Center
12:54PM 34.5594 -105.8161 282° West 425 489 40,000  Level Albuquerque Center
12:55PM 34.5844 -105.9608 282° West 431 496 40,000  Level Albuquerque Center
12:56PM 34.6094 -106.1069 282° West 436 502 40,000  Level Albuquerque Center
12:58PM 34.6322 -106.2450 281° West 436 502 40,000  Level Albuquerque Center
12:59PM 34.6558 -106.3889 281° West 434 499 40,000  Level Albuquerque Center
01:00PM 34.6794 -106.5328 281° West 433 498 40,000  Level Albuquerque Center
01:01PM 34.7078 -106.7072 281° West 435 501 40,000  Level Albuquerque Center
01:02PM 34.7306 -106.8511 281° West 433 498 40,000  Level Albuquerque Center
01:03PM 34.7539 -106.9917 281° West 426 490 40,000  Level Albuquerque Center
01:04PM 34.7750 -107.1294 281° West 415 478 40,000  Level Albuquerque Center
01:05PM 34.7978 -107.2642 282° West 408 470 40,000  Level Albuquerque Center
01:06PM 34.8183 -107.3989 281° West 404 465 40,000  Level Albuquerque Center
01:07PM 34.8392 -107.5317 281° West 400 460 40,000  Level Albuquerque Center
01:08PM 34.8603 -107.6625 281° West 396 456 40,000  Level Albuquerque Center
01:09PM 34.8847 -107.8192 281° West 394 453 40,000  Level Albuquerque Center
01:10PM 34.9053 -107.9558 280° West 390 449 40,000  Level Albuquerque Center
01:11PM 34.9247 -108.0794 281° West 389 448 40,000  Level Albuquerque Center
01:12PM 34.9461 -108.2231 280° West 387 445 40,000  Level Albuquerque Center
01:13PM 34.9653 -108.3472 281° West 387 445 40,000  Level Albuquerque Center
01:14PM 34.9864 -108.4922 280° West 388 447 40,000  Level Albuquerque Center
01:15PM 35.0053 -108.6161 281° West 387 445 40,000  Level Albuquerque Center
01:16PM 35.0233 -108.7392 280° West 385 443 40,000  Level Albuquerque Center
01:17PM 35.0439 -108.8808 280° West 381 438 40,000  Level Albuquerque Center
01:18PM 35.0619 -109.0008 280° West 377 434 40,000  Level Albuquerque Center
01:19PM 35.0819 -109.1414 280° West 375 432 40,000  Level Albuquerque Center
01:20PM 35.0986 -109.2619 280° West 375 432 40,000  Level Albuquerque Center
01:21PM 35.1189 -109.4008 280° West 372 428 40,000  Level Albuquerque Center
01:22PM 35.1347 -109.5178 279° West 367 422 40,000  Level Albuquerque Center
01:23PM 35.1533 -109.6533 280° West 364 419 40,000  Level Albuquerque Center
01:24PM 35.1694 -109.7703 280° West 363 418 40,000  Level Albuquerque Center
01:25PM 35.1858 -109.8906 279° West 369 425 40,000  Level Albuquerque Center
01:26PM 35.2047 -110.0264 280° West 366 421 40,000  Level Albuquerque Center
01:27PM 35.2189 -110.1431 278° West 364 419 40,000 -540 Level Albuquerque Center
01:29PM 35.2353 -110.2806 278° West 364 419 39,000 -1,020 Descending Albuquerque Center
01:30PM 35.2472 -110.4086 277° West 387 445 38,000 -720 Descending Albuquerque Center
01:31PM 35.2569 -110.5575 275° West 394 453 37,600 -660 Descending Albuquerque Center
01:32PM 35.2633 -110.6839 274° West 391 450 36,700 -1,020 Descending Albuquerque Center
01:33PM 35.2831 -110.8233 280° West 381 438 35,600 -1,020 Descending Albuquerque Center
01:34PM 35.2989 -110.9458 279° West 379 436 34,600 -960 Descending Albuquerque Center
01:35PM 35.3161 -111.0731 279° West 388 447 33,700 -1,020 Descending Albuquerque Center
01:36PM 35.3369 -111.2206 280° West 391 450 32,500 -1,020 Descending Albuquerque Center
01:37PM 35.3539 -111.3492 279° West 396 456 31,600 -1,020 Descending Albuquerque Center
01:38PM 35.3728 -111.4914 279° West 404 465 30,500 -1,020 Descending Albuquerque Center
01:39PM 35.3903 -111.6231 279° West 400 460 29,500 -1,020 Descending Albuquerque Center
01:40PM 35.4069 -111.7500 279° West 387 445 28,500 -1,080 Descending Albuquerque Center
01:41PM 35.4261 -111.9042 279° West 384 442 27,300 -1,080 Descending Albuquerque Center
01:42PM 35.4419 -112.0303 279° West 380 437 26,300 -660 Descending Albuquerque Center
01:43PM 35.4581 -112.1553 279° West 376 433 26,000 -180 Descending Albuquerque Center
01:44PM 35.4742 -112.2817 279° West 377 434 26,000  Level Albuquerque Center
01:45PM 35.4892 -112.4078 278° West 377 434 26,000  Level Albuquerque Center
01:46PM 35.5081 -112.5567 279° West 374 430 26,000 -120 Level Albuquerque Center
01:47PM 35.5233 -112.6811 279° West 373 429 25,800 -360 Descending Albuquerque Center
01:48PM 35.5392 -112.8033 279° West 370 426 25,300 -540 Descending Albuquerque Center
01:49PM 35.5536 -112.9275 278° West 373 429 24,800 -540 Descending Albuquerque Center
01:50PM 35.5708 -113.0731 278° West 369 425 24,300 -360 Descending Albuquerque Center
01:51PM 35.5881 -113.2258 278° West 369 425 24,000 -240 Descending Los Angeles Center
01:52PM 35.6022 -113.3483 278° West 373 429 23,800 -1,200 Descending Los Angeles Center
01:53PM 35.6164 -113.4725 278° West 371 427 21,500 -2,160 Descending Los Angeles Center
01:55PM 35.6311 -113.5939 279° West 366 421 19,300 -1,680 Descending Los Angeles Center
01:56PM 35.6483 -113.7111 280° West 355 409 18,100 -1,140 Descending Los Angeles Center
01:57PM 35.6689 -113.8511 280° West 350 403 17,000 -1,200 Descending Los Angeles Center
01:58PM 35.6881 -113.9828 280° West 385 443 15,700 -1,260 Descending Los Angeles Center
01:59PM 35.7044 -114.1114 279° West 381 438 14,400 -1,260 Descending Los Angeles Center
01:59PM 35.7186 -114.2008 281° West 364 419 13,600 -1,080 Descending Los Angeles Center
02:00PM 35.7225 -114.2317 279° West 335 386 13,300 -900 Descending Los Angeles Center
02:00PM 35.7314 -114.2764 284° West 311 358 12,900 -900 Descending Los Angeles Center
02:01PM 35.7381 -114.3303 279° West 295 339 12,400 -720 Descending Los Angeles Center
02:01PM 35.7694 -114.3775 309° West 295 339 12,100 -420 Descending Los Angeles Center
02:02PM 35.7900 -114.4019 316° Northwest 275 316 12,000 -540 Descending Los Angeles Center
02:02PM 35.8386 -114.4258 338° Northwest 291 335 11,600 -900 Descending Los Angeles Center
02:03PM 35.8672 -114.4383 341° North 293 337 11,100 -1,380 Descending Los Angeles Center
02:03PM 35.9181 -114.4522 348° North 298 343 10,200 -1,980 Descending Los Angeles Center
02:04PM 35.9625 -114.4686 343° North 293 337 9,100 -1,800 Descending Los Angeles Center
02:04PM 35.9961 -114.4817 343° North 294 338 8,400 -1,080 Descending Los Angeles Center
02:05PM 36.0403 -114.4975 344° North 293 337 8,000 -300 Descending Los Angeles Center
02:05PM 36.0767 -114.5131 341° North 287 330 8,100  Climbing Los Angeles Center
02:06PM 36.1169 -114.5261 345° North 291 335 8,000  Descending Los Angeles Center
02:06PM 36.1481 -114.5422 337° Northwest 286 329 8,100  Climbing Los Angeles Center
02:07PM 36.1653 -114.5894 294° West 281 323 8,000 -300 Descending Los Angeles Center
02:07PM 36.1633 -114.6303 267° West 278 320 7,800 -720 Descending Los Angeles Center
02:08PM 36.1575 -114.6833 262° West 276 318 7,300 -1,320 Descending Los Angeles Center
02:08PM 36.1533 -114.7217 262° West 271 312 6,500 -1,380 Descending Los Angeles Center
02:09PM 36.1478 -114.7928 264° West 270 311 5,900 -660 Descending Los Angeles Center
02:10PM 36.1381 -114.8867 263° West 272 313 5,400 -780 Descending Los Angeles Center
02:11PM 36.1333 -114.9947 267° West 227 261 4,200 -780 Descending Los Angeles Center
02:12PM 36.1364 -115.0578 273° West 173 199 3,700 -420 Descending Los Angeles Center
02:13PM 36.1369 -115.0981 271° West 186 214 3,500 -600 Descending Los Angeles Center
02:14PM 36.1133 -115.1506 241° Southwest 151 174 2,500 -660 Descending Los Angeles Center
02:15PM 36.0875 -115.1625 200° South 150 173 2,200 -180 Descending Los Angeles Center
02:16PM 36.0825 -115.1672 217° Southwest 55 63 2,200  Level Los Angeles Center
02:17PM 36.0803 -115.1692 215° Southwest 41 47 2,200  Level Los Angeles Center